Airfield :
LOGIN :

Register | Disclaimer

   EN    FR    IT 

 










Legend :    VFR   Marginal VFR   IFR   Intensive IFR   Very Intensive IFR
Visi :
Ceiling :
>= 8 km
>= 3000ft
5 to 8 km
1000 to 3000 ft
1500m to 5 km
500 to 1000 ft
800 to 1500m
200 to 500 ft
< 800m
< 200 ft
Symbols :   Thunderstorms  Fog  Heavy snow  Heavy precipitations  Wind > 20 kt
SIGMETs :     Misc.  Thunderstorms  Icing  Turbulence  Mountain Waves  Volcanic Ashes







- Airport Elevation : 112 ft
- IATA code : KIR


EIKY - Kerry Farranfore

CURRENT METAR :
  • 241630Z 30004KT 250V340 9999 SCT014 BKN020 17/15 Q1014

EXPIRED METARs :
  • 241600Z 30005KT 250V330 9999 SCT012 BKN020 BKN028 17/15 Q1014
  • 241530Z 30005KT 250V340 9999 BKN024 18/15 Q1014
  • 241500Z 30005KT 260V340 9999 SCT012 BKN021 18/16 Q1014
  • 241430Z 34006KT 310V010 9999 SCT014 BKN020 20/16 Q1013
  • 241400Z 30003KT 240V360 9999 SCT024 21/16 Q1013

TAF TAF EIKY
Valid from the 24 at 15:00 until the 24 at 21:00 UTC


241400Z 2415/2421 18006KT 9999 FEW035
TEMPO 2416/2418 4000 -RA BKN010
TEMPO 2418/2421 3000 -RA BKN006
PROB30
TEMPO 2419/2421 BKN003
No reported NOTAMs for that airfield.



MET'MAP, your aeronautical weather chart ! - Copyright ORBIFLY December 2007 - Disclaimer

ORBIFLY MET'MAP TEAM :

Programming & Development : Alexandra Zaïnal
Concept & Development : Baudouin d'Aumeries
Co-Development & Prog : Marc-Olivier Méhu
Technical & hardware support : Manuel Goepfert

Contact : metmap@orbifly.com




SOURCES & CREDITS :

   NOAA